Buhler, Kansas
Current Conditions -  °F | °C
As of 9:52 AM on Thursday 30 Oct 2014 (Local Time) from KHUT Reporting Station
Clear Clear  
Wind Chill: 60°   Ceiling: Unl
Heat Index: 60°   Visibility: 10mi
Dew Point: 35°   Wind: 14mph
Humidity: 39%   Direction: 350°N
Pressure: 30.16"   Gusts: 24mph
Location:  38.13°N, 97.77°W
Report Text: KHUT 301452Z 35012G21KT 10SM CLR 16/02 A3016 RMK AO2 SLP202 T01560017 53037
Loading
Personal Weather Stations






























Interactive Weather Map
Tropical Storm Tracking
New forecast layout! Learn more

10-Day Weather Forecast

Advertisements
Track Severe Weather on mobile